Time;durP1;ratioP1;P1;durP2;ratioP2;P2;SDS_P1;SDS_P2;PMS_P1;PMS_P2;Temp;Humidity;BMP_temperature;BMP_pressure;BME280_temperature;BME280_humidity;BME280_pressure;Samples;Min_cycle;Max_cycle;Signal;HPM_P1;HPM_P2
2021/09/28 00:01:05;;;;;;;8.07;5.22;;;;;;;21.45;44.72;99973.28;5069553;28;20031;-47
2021/09/28 00:03:30;;;;;;;6.38;4.93;;;;;;;21.51;44.55;99976.00;5056631;28;20036;-49
2021/09/28 00:05:56;;;;;;;8.38;5.13;;;;;;;21.39;45.24;99970.84;5070189;28;20028;-48
2021/09/28 00:08:21;;;;;;;6.15;5.20;;;;;;;21.43;45.22;99967.31;5063123;28;20028;-50
2021/09/28 00:10:47;;;;;;;8.10;5.28;;;;;;;21.47;45.40;99971.13;5067158;28;20037;-49
2021/09/28 00:13:12;;;;;;;8.10;5.57;;;;;;;21.30;45.62;99957.00;5056623;28;20500;-49
2021/09/28 00:15:38;;;;;;;7.93;5.30;;;;;;;21.29;45.43;99958.91;5068579;28;20053;-48
2021/09/28 00:18:03;;;;;;;9.00;5.28;;;;;;;21.37;45.31;99960.28;5060769;28;20060;-49
2021/09/28 00:20:31;;;;;;;9.52;5.53;;;;;;;21.34;45.59;99958.09;5061318;28;20017;-48
2021/09/28 00:22:56;;;;;;;8.40;5.30;;;;;;;21.12;46.26;99950.25;5068316;28;20040;-52
2021/09/28 00:25:22;;;;;;;9.38;5.20;;;;;;;21.25;46.29;99944.31;5056357;28;20021;-50
2021/09/28 00:27:48;;;;;;;9.95;5.50;;;;;;;21.25;46.04;99948.91;5067529;28;20025;-48
2021/09/28 00:30:13;;;;;;;10.07;5.55;;;;;;;21.29;45.79;99948.09;5061934;28;20056;-50
2021/09/28 00:32:39;;;;;;;9.02;5.13;;;;;;;21.32;46.00;99951.34;5058636;28;20078;-48
2021/09/28 00:35:05;;;;;;;10.02;5.53;;;;;;;21.28;46.14;99948.34;5069332;28;20020;-48
2021/09/28 00:37:30;;;;;;;7.68;5.50;;;;;;;21.29;45.97;99945.38;5056071;28;20044;-50
2021/09/28 00:39:56;;;;;;;9.85;5.50;;;;;;;21.24;46.08;99947.28;5065867;28;20096;-49
2021/09/28 00:42:21;;;;;;;10.35;5.63;;;;;;;21.31;45.96;99942.41;5063054;28;20021;-48
2021/09/28 00:44:47;;;;;;;10.52;5.80;;;;;;;21.19;46.25;99939.97;5058733;28;20473;-50
2021/09/28 00:47:13;;;;;;;10.80;5.50;;;;;;;21.25;45.64;99938.88;5069014;28;20039;-46
2021/09/28 00:49:42;;;;;;;10.30;5.80;;;;;;;21.12;45.72;99927.78;5056714;28;20028;-50
2021/09/28 00:52:09;;;;;;;7.60;5.95;;;;;;;21.16;45.43;99935.09;5064212;28;20025;-49
2021/09/28 00:54:37;;;;;;;10.00;6.18;;;;;;;21.14;45.34;99923.72;5064419;28;20118;-47
2021/09/28 00:57:04;;;;;;;10.80;5.90;;;;;;;20.85;46.14;99926.13;5039266;28;20020;-49
2021/09/28 00:59:29;;;;;;;9.52;5.70;;;;;;;20.82;46.19;99924.75;5068903;28;20429;-47
2021/09/28 01:01:55;;;;;;;7.70;5.45;;;;;;;20.98;45.74;99933.72;5057610;28;20031;-49
2021/09/28 01:04:20;;;;;;;9.32;5.97;;;;;;;20.97;45.65;99925.88;5062221;28;20013;-46
2021/09/28 01:06:46;;;;;;;8.68;5.70;;;;;;;21.03;45.64;99920.19;5063659;28;20024;-48
2021/09/28 01:09:11;;;;;;;8.07;5.63;;;;;;;20.81;45.70;99917.72;5055372;28;20021;-47
2021/09/28 01:11:38;;;;;;;7.53;5.95;;;;;;;20.59;46.76;99914.38;5068025;28;20429;-49
2021/09/28 01:14:04;;;;;;;8.55;5.70;;;;;;;20.84;45.79;99911.75;5059476;28;20048;-47
2021/09/28 01:16:30;;;;;;;9.45;6.15;;;;;;;20.53;46.17;99904.63;5060199;28;20043;-49
2021/09/28 01:18:55;;;;;;;8.68;5.75;;;;;;;20.38;46.73;99908.09;5066724;28;20046;-47
2021/09/28 01:21:22;;;;;;;8.57;5.65;;;;;;;20.50;46.22;99905.97;5054883;28;20021;-47
2021/09/28 01:23:47;;;;;;;8.68;5.72;;;;;;;20.33;46.80;99905.38;5064736;28;20021;-47
2021/09/28 01:26:17;;;;;;;7.50;5.30;;;;;;;20.37;47.05;99906.47;5060617;28;20035;-46
2021/09/28 01:28:46;;;;;;;;;;;;;;;20.81;45.92;99908.78;5057433;28;20033;-48
2021/09/28 01:31:12;;;;;;;8.88;5.20;;;;;;;20.54;46.12;99901.66;5067992;28;20441;-48
2021/09/28 01:33:38;;;;;;;9.90;5.70;;;;;;;20.54;46.32;99901.66;5055795;28;20028;-47
2021/09/28 01:36:03;;;;;;;9.02;5.47;;;;;;;20.37;47.13;99899.19;5063805;28;20052;-47
2021/09/28 01:38:29;;;;;;;9.55;5.85;;;;;;;20.30;47.65;99893.19;5062845;28;20060;-49
2021/09/28 01:40:54;;;;;;;8.88;5.85;;;;;;;20.38;47.24;99900.00;5056410;28;20036;-49
2021/09/28 01:43:20;;;;;;;12.10;5.97;;;;;;;20.65;47.00;99897.94;5067743;28;20032;-48
2021/09/28 01:45:47;;;;;;;9.68;5.72;;;;;;;20.50;47.51;99923.00;5055979;28;20491;-46
2021/09/28 01:48:13;;;;;;;9.57;6.20;;;;;;;20.44;49.23;99913.25;5061956;28;20063;-47
2021/09/28 01:50:38;;;;;;;11.80;6.68;;;;;;;20.38;49.21;99908.91;5063809;28;20369;-46
2021/09/28 01:53:04;;;;;;;12.27;7.40;;;;;;;20.34;49.44;99893.50;5055014;28;20020;-46
2021/09/28 01:55:29;;;;;;;9.88;7.03;;;;;;;20.43;49.97;99906.22;5067418;28;20112;-46
2021/09/28 01:57:59;;;;;;;13.45;8.93;;;;;;;20.41;48.87;99900.28;5057540;28;20028;-47
2021/09/28 02:00:25;;;;;;;12.27;8.13;;;;;;;20.29;49.08;99915.88;5060279;28;20040;-46
2021/09/28 02:02:50;;;;;;;13.32;8.07;;;;;;;20.42;49.00;99917.28;5065192;28;20032;-47
2021/09/28 02:05:16;;;;;;;11.20;7.88;;;;;;;20.59;48.90;99922.50;5054373;28;20017;-48
2021/09/28 02:07:42;;;;;;;11.48;8.43;;;;;;;20.58;49.57;99926.25;5066097;28;20021;-47
2021/09/28 02:10:07;;;;;;;15.43;8.57;;;;;;;20.69;50.08;99933.38;5059476;28;20101;-47
2021/09/28 02:12:33;;;;;;;15.40;8.68;;;;;;;20.68;50.00;99923.63;5059032;28;20401;-46
2021/09/28 02:14:59;;;;;;;12.35;8.30;;;;;;;20.66;50.85;99921.19;5065905;28;20074;-46
2021/09/28 02:17:24;;;;;;;14.13;8.13;;;;;;;20.66;49.85;99921.19;5053581;28;20416;-46
2021/09/28 02:19:50;;;;;;;11.00;8.05;;;;;;;20.63;50.33;99921.72;5064452;28;20033;-47
2021/09/28 02:22:15;;;;;;;14.95;8.15;;;;;;;20.67;50.35;99916.59;5059751;28;20028;-47
2021/09/28 02:24:41;;;;;;;17.05;8.73;;;;;;;20.77;50.57;99915.81;5057526;28;20028;-47
2021/09/28 02:27:06;;;;;;;11.45;7.72;;;;;;;20.59;50.50;99917.09;5065681;28;20039;-46
2021/09/28 02:29:32;;;;;;;10.90;7.72;;;;;;;20.59;49.75;99903.56;5037313;28;20036;-47
2021/09/28 02:31:57;;;;;;;11.95;7.60;;;;;;;20.61;49.70;99909.56;5063308;28;20025;-48
2021/09/28 02:34:22;;;;;;;13.45;7.25;;;;;;;20.76;48.98;99901.47;5059416;28;20025;-48
2021/09/28 02:36:48;;;;;;;11.75;7.20;;;;;;;20.70;48.88;99905.25;5056338;28;20083;-50
2021/09/28 02:39:13;;;;;;;13.07;8.18;;;;;;;20.66;49.35;99907.69;5066528;28;20032;-47
2021/09/28 02:41:39;;;;;;;14.50;8.85;;;;;;;20.77;50.36;99915.81;5054452;28;20036;-36
2021/09/28 02:44:04;;;;;;;11.25;8.25;;;;;;;20.78;51.56;99918.25;5062172;28;20037;-37
2021/09/28 02:46:31;;;;;;;10.00;7.45;;;;;;;20.68;50.60;99916.34;5061783;28;20097;-36
2021/09/28 02:48:57;;;;;;;13.48;7.30;;;;;;;20.65;50.48;99918.75;5054311;28;20033;-36
2021/09/28 02:51:22;;;;;;;13.32;7.75;;;;;;;20.48;51.73;99908.94;5050123;28;20424;-36
2021/09/28 02:53:48;;;;;;;12.55;7.25;;;;;;;20.52;51.22;99909.22;5050060;28;20029;-36
2021/09/28 02:56:13;;;;;;;11.50;7.50;;;;;;;20.69;51.15;99911.72;5059243;28;20480;-37
2021/09/28 02:58:39;;;;;;;9.52;6.50;;;;;;;20.71;50.48;99906.88;5057250;28;20025;-37
2021/09/28 03:01:04;;;;;;;9.82;6.90;;;;;;;20.74;50.94;99905.53;5064852;28;20453;-37
2021/09/28 03:03:30;;;;;;;11.43;7.10;;;;;;;20.82;50.39;99897.69;5067203;28;20055;-37
2021/09/28 03:05:55;;;;;;;9.70;6.70;;;;;;;20.73;50.13;99893.91;5055787;28;20020;-37
2021/09/28 03:08:21;;;;;;;12.55;6.85;;;;;;;20.53;50.91;99899.22;5059702;28;20055;-37
2021/09/28 03:10:46;;;;;;;12.00;6.70;;;;;;;20.40;51.04;99897.84;5064163;28;20032;-37
2021/09/28 03:13:12;;;;;;;11.35;6.75;;;;;;;20.43;51.08;99897.31;5052124;28;20037;-37
2021/09/28 03:15:38;;;;;;;14.27;6.63;;;;;;;20.41;50.67;99902.16;5050474;28;20033;-37
2021/09/28 03:18:03;;;;;;;11.52;6.90;;;;;;;20.43;50.97;99903.53;5049872;28;20748;-37
2021/09/28 03:20:29;;;;;;;12.20;6.78;;;;;;;20.37;51.50;99904.59;5061266;28;20103;-37
2021/09/28 03:22:54;;;;;;;9.77;6.82;;;;;;;20.48;51.28;99903.53;5055076;28;20036;-37
2021/09/28 03:25:20;;;;;;;11.27;6.82;;;;;;;20.47;52.07;99917.31;5068186;28;20032;-37
2021/09/28 03:27:45;;;;;;;10.13;6.70;;;;;;;20.53;52.07;99912.75;5064427;28;20381;-37
2021/09/28 03:30:11;;;;;;;12.02;6.82;;;;;;;20.69;51.68;99919.84;5062079;28;20057;-37
2021/09/28 03:32:37;;;;;;;11.13;7.18;;;;;;;20.66;51.71;99920.41;5061012;28;20029;-37
2021/09/28 03:35:09;;;;;;;9.07;6.97;;;;;;;20.57;51.95;99920.06;5069359;28;20467;-37
2021/09/28 03:37:38;;;;;;;9.93;6.63;;;;;;;20.64;51.18;99915.25;5041102;28;20078;-37
2021/09/28 03:40:05;;;;;;;10.25;7.15;;;;;;;20.67;51.17;99920.09;5064087;28;20060;-37
2021/09/28 03:42:31;;;;;;;9.32;6.78;;;;;;;20.75;50.97;99936.91;5065194;28;20032;-37
2021/09/28 03:44:56;;;;;;;11.35;7.38;;;;;;;20.74;51.06;99935.28;5056341;28;20660;-37
2021/09/28 03:47:22;;;;;;;12.15;6.85;;;;;;;20.74;51.36;99932.59;5067975;28;20027;-37
2021/09/28 03:49:47;;;;;;;12.55;7.82;;;;;;;20.76;51.09;99925.00;5056832;28;20410;-37
2021/09/28 03:52:13;;;;;;;12.73;8.13;;;;;;;20.88;50.50;99933.69;5062047;28;20033;-37
2021/09/28 03:54:38;;;;;;;13.05;7.53;;;;;;;20.89;50.10;99930.72;5051224;28;20033;-37
2021/09/28 03:57:04;;;;;;;12.90;8.55;;;;;;;20.77;49.96;99938.28;5067191;28;20553;-37
2021/09/28 03:59:29;;;;;;;46.78;28.17;;;;;;;20.82;50.02;99948.28;5054127;28;20412;-36
2021/09/28 04:01:55;;;;;;;24.90;16.85;;;;;;;20.83;50.62;99944.50;5063419;28;20029;-36
2021/09/28 04:04:20;;;;;;;13.20;8.65;;;;;;;20.75;50.83;99943.09;5055796;28;20033;-36
2021/09/28 04:06:46;;;;;;;12.65;7.43;;;;;;;20.59;50.87;99941.41;5066345;28;20028;-36
2021/09/28 04:09:11;;;;;;;9.20;7.07;;;;;;;20.54;51.03;99931.38;5052095;28;20033;-36
2021/09/28 04:11:36;;;;;;;12.25;7.55;;;;;;;20.59;51.78;99947.63;5048296;28;20040;-38
2021/09/28 04:14:02;;;;;;;11.15;7.03;;;;;;;20.60;51.79;99943.91;5065263;28;20052;-37
2021/09/28 04:16:29;;;;;;;17.83;9.15;;;;;;;20.56;51.74;99941.94;5053138;28;20500;-35
2021/09/28 04:18:54;;;;;;;39.78;26.38;;;;;;;20.63;51.57;99943.34;5067524;28;20024;-36
2021/09/28 04:21:20;;;;;;;24.77;16.45;;;;;;;20.68;52.06;99940.66;5071001;28;20036;-36
2021/09/28 04:23:45;;;;;;;19.08;10.18;;;;;;;20.81;51.29;99942.06;5056804;28;20066;-37
2021/09/28 04:26:11;;;;;;;15.60;7.93;;;;;;;20.62;51.71;99949.00;5062627;28;20393;-37
2021/09/28 04:28:37;;;;;;;16.55;7.53;;;;;;;20.49;52.18;99932.19;5065665;28;20062;-37
2021/09/28 04:31:02;;;;;;;14.85;7.78;;;;;;;20.53;52.06;99948.69;5055063;28;20037;-49
2021/09/28 04:33:28;;;;;;;14.68;7.70;;;;;;;20.39;52.11;99942.13;5068868;28;20109;-47
2021/09/28 04:35:53;;;;;;;10.35;7.70;;;;;;;20.36;51.95;99938.09;5058580;28;20032;-47
2021/09/28 04:38:19;;;;;;;15.32;8.70;;;;;;;20.47;51.79;99938.94;5062189;28;20449;-48
2021/09/28 04:40:44;;;;;;;14.13;8.90;;;;;;;20.62;52.38;99930.91;5064582;28;20094;-49
2021/09/28 04:43:10;;;;;;;24.10;15.57;;;;;;;20.41;51.91;99939.97;5055127;28;20445;-46
2021/09/28 04:45:35;;;;;;;167.63;104.60;;;;;;;20.47;51.98;99939.75;5066937;28;20040;-48
2021/09/28 04:48:00;;;;;;;28.10;18.48;;;;;;;20.37;52.18;99937.03;5059398;28;20504;-47
2021/09/28 04:50:26;;;;;;;13.63;9.60;;;;;;;20.44;51.98;99952.97;5060865;28;20519;-46
2021/09/28 04:52:51;;;;;;;15.90;9.75;;;;;;;20.47;52.07;99947.06;5066258;28;20031;-47
2021/09/28 04:55:17;;;;;;;18.55;9.60;;;;;;;19.95;53.13;99910.03;5055147;28;20048;-46
2021/09/28 04:57:42;;;;;;;14.13;9.00;;;;;;;20.36;53.05;99954.28;5066854;28;20025;-46
2021/09/28 05:00:10;;;;;;;16.00;9.05;;;;;;;20.47;52.76;99965.97;5060084;28;20581;-48
2021/09/28 05:02:36;;;;;;;15.68;8.82;;;;;;;20.62;52.13;99968.78;5058109;28;20174;-50
2021/09/28 05:05:01;;;;;;;14.60;8.85;;;;;;;20.77;51.55;99968.03;5056862;28;20024;-49
2021/09/28 05:07:27;;;;;;;18.75;8.90;;;;;;;20.67;51.88;99968.78;5068375;28;20037;-48
2021/09/28 05:09:52;;;;;;;19.90;9.10;;;;;;;20.66;51.83;99972.56;5057730;28;20417;-50
2021/09/28 05:12:18;;;;;;;15.43;9.10;;;;;;;20.56;51.79;99967.09;5059897;28;20056;-49
2021/09/28 05:14:43;;;;;;;16.90;8.75;;;;;;;20.53;53.17;99966.81;5064512;28;20051;-48
2021/09/28 05:17:09;;;;;;;19.38;9.35;;;;;;;20.72;51.83;99970.69;5054426;28;20048;-47
2021/09/28 05:19:34;;;;;;;20.85;9.68;;;;;;;20.74;51.28;99970.44;5047198;28;20051;-49
2021/09/28 05:21:59;;;;;;;22.90;9.20;;;;;;;20.87;51.42;99967.22;5063979;28;20225;-46
2021/09/28 05:24:25;;;;;;;17.17;8.65;;;;;;;21.06;51.08;99976.47;5062032;28;20031;-48
2021/09/28 05:26:50;;;;;;;20.13;8.85;;;;;;;21.31;50.54;99974.09;5056574;28;20090;-48
2021/09/28 05:29:16;;;;;;;18.85;8.88;;;;;;;21.62;50.02;99980.34;5067649;28;20444;-48
2021/09/28 05:31:41;;;;;;;15.48;8.80;;;;;;;21.77;49.63;99980.34;5055888;28;20029;-47
2021/09/28 05:34:07;;;;;;;14.27;7.97;;;;;;;21.66;49.87;99986.84;5062202;28;20485;-45
2021/09/28 05:36:32;;;;;;;11.93;7.55;;;;;;;21.84;48.58;99997.13;5061925;28;20054;-46
2021/09/28 05:38:58;;;;;;;14.30;6.85;;;;;;;21.90;47.89;99987.09;5052219;28;20020;-47
2021/09/28 05:41:24;;;;;;;15.18;8.50;;;;;;;21.94;47.89;99998.22;5055158;28;20040;-46
2021/09/28 05:43:51;;;;;;;13.00;8.95;;;;;;;21.95;48.09;99995.25;5054616;28;20335;-46
2021/09/28 05:46:16;;;;;;;14.52;8.20;;;;;;;21.98;48.19;99994.66;5059068;28;20106;-47
2021/09/28 05:48:42;;;;;;;14.77;7.00;;;;;;;22.01;47.38;100001.47;5061948;28;20055;-48
2021/09/28 05:51:15;;;;;;;11.85;7.45;;;;;;;22.17;47.56;100011.19;5052226;28;20029;-46
2021/09/28 05:53:41;;;;;;;11.63;8.15;;;;;;;22.11;47.25;100012.28;5064235;28;20040;-47
2021/09/28 05:56:06;;;;;;;21.67;14.77;;;;;;;22.24;47.31;100011.72;5057513;28;20040;-48
2021/09/28 05:58:32;;;;;;;12.15;8.93;;;;;;;22.48;46.89;100011.13;5058643;28;20044;-46
2021/09/28 06:00:57;;;;;;;15.68;7.50;;;;;;;22.51;46.87;100009.78;5065977;28;20032;-48
2021/09/28 06:03:23;;;;;;;12.80;7.07;;;;;;;22.39;47.56;100016.31;5054094;28;20033;-47
2021/09/28 06:05:48;;;;;;;14.85;9.63;;;;;;;22.63;46.60;100021.13;5065897;28;20093;-46
2021/09/28 06:08:14;;;;;;;21.15;14.90;;;;;;;22.80;46.16;100013.44;5060827;28;20025;-47
2021/09/28 06:10:42;;;;;;;17.40;11.20;;;;;;;23.10;46.04;100017.13;5063282;28;20035;-47
2021/09/28 06:13:07;;;;;;;19.13;9.68;;;;;;;23.14;46.04;100025.53;5053368;28;20033;-48
2021/09/28 06:15:33;;;;;;;13.60;8.35;;;;;;;22.94;46.26;100015.56;5065012;28;20095;-47
2021/09/28 06:17:58;;;;;;;16.13;9.35;;;;;;;22.92;46.54;100010.41;5057464;28;20024;-49
2021/09/28 06:20:24;;;;;;;17.27;9.90;;;;;;;23.13;46.44;100013.03;5059283;28;20112;-48
2021/09/28 06:22:49;;;;;;;16.95;8.70;;;;;;;23.32;45.51;100015.91;5064079;28;20071;-46
2021/09/28 06:25:15;;;;;;;16.42;8.20;;;;;;;23.41;45.70;100017.75;5052995;28;20036;-47
2021/09/28 06:27:40;;;;;;;15.02;8.18;;;;;;;23.41;45.68;100016.94;5065217;28;20024;-47
2021/09/28 06:30:06;;;;;;;14.65;8.48;;;;;;;23.77;44.49;100017.47;5058004;28;20028;-46
2021/09/28 06:32:32;;;;;;;15.88;10.52;;;;;;;23.63;44.93;100013.81;5056521;28;20058;-47
2021/09/28 06:34:57;;;;;;;16.83;8.13;;;;;;;23.48;45.11;100014.72;5065218;28;20029;-47
2021/09/28 06:37:23;;;;;;;12.55;7.30;;;;;;;23.64;45.02;100023.56;5051436;28;20167;-48
2021/09/28 06:39:48;;;;;;;10.77;7.65;;;;;;;23.98;44.46;100020.84;5063191;28;20021;-47
2021/09/28 06:42:14;;;;;;;13.60;6.95;;;;;;;23.98;43.97;100029.00;5058963;28;20031;-48
2021/09/28 06:44:39;;;;;;;15.32;7.22;;;;;;;23.74;44.56;100028.09;5056920;28;20043;-47
2021/09/28 06:47:05;;;;;;;14.82;7.05;;;;;;;23.89;44.46;100032.63;5065984;28;20455;-47
2021/09/28 06:49:30;;;;;;;10.77;7.10;;;;;;;23.85;44.63;100029.66;5053001;28;20044;-47
2021/09/28 06:51:57;;;;;;;11.32;7.32;;;;;;;24.01;43.87;100033.06;5062700;28;20377;-49
2021/09/28 06:54:23;;;;;;;13.40;7.20;;;;;;;23.67;44.55;100030.34;5059686;28;20020;-49
2021/09/28 06:56:48;;;;;;;10.35;7.38;;;;;;;23.24;45.45;100022.75;5054607;28;20017;-47
2021/09/28 06:59:14;;;;;;;16.85;7.20;;;;;;;23.05;46.03;100036.16;5065902;28;20439;-47
2021/09/28 07:01:40;;;;;;;15.77;7.00;;;;;;;23.01;46.40;100029.63;5053996;28;20020;-48
2021/09/28 07:04:06;;;;;;;10.65;7.18;;;;;;;23.00;46.82;100030.75;5062981;28;20478;-47
2021/09/28 07:06:31;;;;;;;10.52;6.93;;;;;;;23.43;46.08;100028.31;5065593;28;20139;-47
2021/09/28 07:08:57;;;;;;;11.25;6.53;;;;;;;23.53;45.62;100039.13;5058215;28;20037;-47
2021/09/28 07:11:22;;;;;;;16.60;10.32;;;;;;;23.66;45.31;100031.44;5070253;28;20119;-46
2021/09/28 07:13:48;;;;;;;9.70;6.53;;;;;;;23.18;46.34;100034.72;5059247;28;20052;-46
2021/09/28 07:16:14;;;;;;;11.68;7.30;;;;;;;23.33;46.14;100034.63;5064312;28;20025;-47
2021/09/28 07:18:39;;;;;;;9.38;6.60;;;;;;;23.36;46.36;100034.09;5066259;28;20454;-46
2021/09/28 07:21:05;;;;;;;9.68;6.50;;;;;;;23.17;47.31;100044.78;5056800;28;20388;-46
2021/09/28 07:23:31;;;;;;;8.73;6.22;;;;;;;23.18;46.41;100045.59;5069568;28;20029;-47
2021/09/28 07:25:56;;;;;;;11.52;5.78;;;;;;;23.10;46.88;100040.75;5060090;28;20040;-47
2021/09/28 07:28:22;;;;;;;9.05;6.22;;;;;;;23.27;46.76;100038.47;5062781;28;20487;-48
2021/09/28 07:30:47;;;;;;;10.52;6.20;;;;;;;23.21;46.95;100045.03;5067148;28;20020;-48
2021/09/28 07:33:12;;;;;;;11.75;5.97;;;;;;;23.11;47.45;100043.16;5056469;28;20067;-46
2021/09/28 07:35:42;;;;;;;11.95;6.43;;;;;;;22.99;47.81;100046.19;5068972;28;20480;-48
2021/09/28 07:38:07;;;;;;;7.45;6.15;;;;;;;22.58;48.99;100048.25;5061894;28;20036;-51
2021/09/28 07:40:33;;;;;;;10.45;6.57;;;;;;;22.65;49.37;100041.44;5061045;28;20484;-49
2021/09/28 07:42:58;;;;;;;10.75;7.03;;;;;;;22.90;48.95;100044.34;5068493;28;20103;-48
2021/09/28 07:45:24;;;;;;;8.88;6.80;;;;;;;22.64;49.44;100042.53;5056395;28;20009;-51
2021/09/28 07:47:50;;;;;;;11.60;7.28;;;;;;;22.65;49.72;100046.84;5067115;28;20090;-48
2021/09/28 07:50:17;;;;;;;9.23;7.38;;;;;;;22.82;49.83;100045.72;5062450;28;20463;-47
2021/09/28 07:52:43;;;;;;;11.50;7.25;;;;;;;22.62;50.54;100052.06;5059550;28;20021;-48
2021/09/28 07:55:09;;;;;;;12.00;6.88;;;;;;;22.53;50.60;100051.78;5068816;28;20360;-49
2021/09/28 07:57:34;;;;;;;10.80;7.15;;;;;;;22.60;50.20;100051.50;5056549;28;20032;-48
2021/09/28 08:00:00;;;;;;;11.95;7.35;;;;;;;22.58;49.90;100051.78;5065263;28;20103;-50
2021/09/28 08:02:26;;;;;;;12.10;7.65;;;;;;;22.46;50.64;100048.53;5063566;28;20017;-50
2021/09/28 08:04:51;;;;;;;9.48;7.43;;;;;;;22.31;51.77;100048.59;5058075;28;20027;-57
2021/09/28 08:07:17;;;;;;;10.63;7.88;;;;;;;22.23;51.86;100048.00;5069272;28;20020;-56
2021/09/28 08:09:43;;;;;;;12.90;8.20;;;;;;;22.21;52.36;100050.19;5058061;28;20024;-51
2021/09/28 08:12:09;;;;;;;9.13;6.85;;;;;;;22.03;53.14;100054.28;5064021;28;20086;-50
2021/09/28 08:14:34;;;;;;;13.23;7.93;;;;;;;22.15;52.84;100047.78;5063935;28;20477;-50
2021/09/28 08:17:00;;;;;;;11.45;7.70;;;;;;;22.14;52.82;100043.44;5055376;28;20091;-50
2021/09/28 08:19:25;;;;;;;8.43;6.70;;;;;;;21.80;53.38;100046.69;5067788;28;20021;-50
2021/09/28 08:21:51;;;;;;;8.85;7.60;;;;;;;21.56;55.31;100046.41;5052753;28;20048;-48
2021/09/28 08:24:17;;;;;;;8.90;6.30;;;;;;;21.76;53.61;100046.44;5051088;28;20016;-50
2021/09/28 08:29:27;;;;;;;10.15;7.13;;;;;;;21.89;55.26;100052.38;5054504;28;20074;-50
2021/09/28 08:31:52;;;;;;;11.15;7.55;;;;;;;22.13;54.57;100058.06;5064366;28;20029;-50
2021/09/28 08:34:19;;;;;;;9.50;7.45;;;;;;;22.23;55.12;100058.06;5060200;28;20034;-49
2021/09/28 08:36:47;;;;;;;10.57;6.95;;;;;;;22.34;53.62;100056.19;5057118;28;20028;-49
2021/09/28 08:39:15;;;;;;;9.40;6.63;;;;;;;22.24;52.43;100030.69;5067713;28;20044;-46
2021/09/28 08:41:42;;;;;;;8.60;7.00;;;;;;;22.49;52.80;100055.34;5055126;28;20457;-47
2021/09/28 08:44:08;;;;;;;12.98;7.90;;;;;;;22.58;53.65;100048.25;5061906;28;20021;-50
2021/09/28 08:46:33;;;;;;;11.57;7.25;;;;;;;22.53;53.48;100048.28;5062604;28;20032;-47
2021/09/28 08:48:59;;;;;;;10.73;6.75;;;;;;;22.56;52.35;100053.97;5054978;28;20017;-48
2021/09/28 08:51:24;;;;;;;9.32;6.70;;;;;;;22.54;52.68;100042.59;5066901;28;20033;-48
2021/09/28 08:53:50;;;;;;;9.10;7.15;;;;;;;22.61;52.21;100050.41;5056570;28;20020;-49
2021/09/28 08:56:16;;;;;;;10.25;7.18;;;;;;;22.63;52.72;100046.31;5060666;28;20068;-47
2021/09/28 08:58:57;;;;;;;8.98;6.68;;;;;;;22.70;51.59;100042.53;5063978;28;20369;-49
2021/09/28 09:01:22;;;;;;;;;;;;;;;22.98;50.29;100041.88;5055228;28;20079;-47
2021/09/28 09:03:48;;;;;;;10.63;7.40;;;;;;;22.82;51.07;100038.38;5065572;28;19909;-47
2021/09/28 09:06:14;;;;;;;10.02;8.30;;;;;;;22.65;52.81;100038.72;5059901;28;20024;-46
2021/09/28 09:08:40;;;;;;;12.95;8.50;;;;;;;22.39;54.00;100039.88;5057306;28;20050;-48
2021/09/28 09:11:10;;;;;;;9.82;7.63;;;;;;;22.49;53.17;100042.59;5065496;28;20111;-46
2021/09/28 09:16:19;;;;;;;11.18;7.38;;;;;;;22.91;50.87;100032.41;5077022;28;20377;-47
2021/09/28 09:18:47;;;;;;;14.77;7.72;;;;;;;23.02;50.43;100034.78;5073719;28;20047;-50
2021/09/28 09:21:14;;;;;;;10.80;7.90;;;;;;;23.15;50.53;100032.56;5083929;28;20501;-46
2021/09/28 09:23:41;;;;;;;13.32;7.53;;;;;;;23.09;51.32;100037.22;5071592;28;20032;-47
2021/09/28 09:26:13;;;;;;;10.57;7.65;;;;;;;23.29;51.17;100028.16;5078962;28;20017;-47
2021/09/28 09:28:42;;;;;;;13.52;10.25;;;;;;;23.26;52.47;100039.56;5080058;28;20035;-46
2021/09/28 09:31:22;;;;;;;18.67;11.82;;;;;;;23.08;53.35;100040.22;5070599;28;20024;-47
2021/09/28 09:33:48;;;;;;;15.40;11.32;;;;;;;23.19;52.84;100036.38;5081276;28;20023;-47
2021/09/28 09:36:18;;;;;;;15.10;11.32;;;;;;;23.25;52.62;100040.66;5076308;28;20027;-47
2021/09/28 09:38:46;;;;;;;15.68;11.93;;;;;;;23.24;51.98;100030.88;5073501;28;20052;-47
2021/09/28 09:41:12;;;;;;;19.05;11.43;;;;;;;23.48;50.99;100030.22;5083799;28;20111;-50
2021/09/28 09:43:37;;;;;;;17.95;11.90;;;;;;;23.40;52.22;100029.72;5071390;28;20020;-48
2021/09/28 09:46:06;;;;;;;14.00;10.95;;;;;;;23.49;51.83;100029.91;5078931;28;20032;-47
2021/09/28 09:48:33;;;;;;;17.55;11.55;;;;;;;23.73;51.00;100026.50;5078749;28;20028;-47
2021/09/28 09:51:10;;;;;;;14.88;11.02;;;;;;;23.76;50.62;100023.19;5070954;28;20183;-46
2021/09/28 09:53:48;;;;;;;15.43;11.00;;;;;;;23.59;50.94;100023.63;5055200;28;20020;-46
2021/09/28 09:56:14;;;;;;;15.18;11.18;;;;;;;23.63;51.26;100027.38;5076946;28;20024;-51
2021/09/28 09:58:39;;;;;;;15.38;11.45;;;;;;;23.78;50.85;100023.75;5079329;28;20052;-46
2021/09/28 10:01:05;;;;;;;16.30;10.20;;;;;;;23.95;50.56;100021.44;5070003;28;20074;-48
2021/09/28 10:03:30;;;;;;;18.17;12.65;;;;;;;24.16;49.32;100024.78;5082794;28;20028;-48
2021/09/28 10:05:56;;;;;;;15.70;11.52;;;;;;;24.05;49.23;100025.16;5073306;28;20045;-48
2021/09/28 10:08:21;;;;;;;15.20;12.00;;;;;;;24.02;49.30;100026.53;5086071;28;20025;-47
2021/09/28 10:10:54;;;;;;;16.60;12.38;;;;;;;23.96;49.05;100022.25;5071892;28;20024;-48
2021/09/28 10:13:52;;;;;;;17.15;12.60;;;;;;;23.86;49.43;100020.44;5082884;28;20024;-52
2021/09/28 10:16:35;;;;;;;17.40;12.60;;;;;;;24.17;48.45;100023.66;5076305;28;20526;-46
2021/09/28 10:19:01;;;;;;;15.85;11.95;;;;;;;24.06;49.27;100024.84;5069898;28;20357;-47
2021/09/28 10:21:42;;;;;;;18.70;12.15;;;;;;;24.26;48.87;100025.78;5082549;28;20135;-46
2021/09/28 10:24:26;;;;;;;14.45;11.05;;;;;;;24.69;47.72;100026.66;5074313;28;20498;-47
2021/09/28 10:27:00;;;;;;;12.70;9.52;;;;;;;24.95;46.21;100024.41;5062415;28;20027;-47
2021/09/28 10:29:49;;;;;;;10.75;8.10;;;;;;;24.73;44.85;100022.28;5069012;28;20033;-46
2021/09/28 10:32:21;;;;;;;9.38;7.38;;;;;;;24.77;44.56;100019.78;5062036;28;20027;-47
2021/09/28 10:35:02;;;;;;;8.98;6.68;;;;;;;24.79;43.58;100020.28;5058089;28;20484;-47
2021/09/28 10:37:42;;;;;;;11.02;6.78;;;;;;;24.62;44.44;100018.06;5069002;28;20103;-46
2021/09/28 10:40:28;;;;;;;8.35;6.80;;;;;;;24.98;42.60;100020.31;5061218;28;20028;-48
2021/09/28 10:43:07;;;;;;;8.80;6.60;;;;;;;25.46;41.73;100019.41;5049827;28;20033;-46
2021/09/28 10:45:32;;;;;;;10.10;7.32;;;;;;;25.83;41.78;100023.94;5039643;28;20468;-48
2021/09/28 10:48:06;;;;;;;9.57;6.43;;;;;;;25.79;41.96;100020.22;5064938;28;20103;-47
2021/09/28 10:50:39;;;;;;;11.82;7.30;;;;;;;25.72;41.41;100022.50;5064317;28;20032;-47
2021/09/28 10:53:26;;;;;;;10.15;6.90;;;;;;;25.92;40.76;100022.19;5056052;28;20017;-50
2021/09/28 10:55:55;;;;;;;11.63;6.78;;;;;;;25.95;40.56;100018.06;5044768;28;20048;-48
2021/09/28 10:58:22;;;;;;;10.10;6.65;;;;;;;26.15;40.71;100014.16;5064962;28;20016;-49
2021/09/28 11:00:53;;;;;;;9.68;6.60;;;;;;;26.08;40.35;100014.56;5058432;28;20021;-52
2021/09/28 11:03:42;;;;;;;14.40;11.57;;;;;;;26.23;39.72;100012.66;5068762;28;20107;-48
2021/09/28 11:06:08;;;;;;;11.43;7.63;;;;;;;26.44;38.99;100016.59;5054080;28;20520;-47
2021/09/28 11:08:37;;;;;;;10.38;6.65;;;;;;;26.11;39.16;100008.50;5059718;28;20103;-47
2021/09/28 11:11:09;;;;;;;8.50;6.70;;;;;;;26.21;38.99;100003.97;5068387;28;20025;-46
2021/09/28 11:13:37;;;;;;;10.45;6.65;;;;;;;26.38;38.96;100009.63;5039846;28;20021;-47
2021/09/28 11:16:04;;;;;;;8.65;6.65;;;;;;;26.50;39.91;100000.94;5063719;28;20140;-50
2021/09/28 11:18:31;;;;;;;11.55;7.30;;;;;;;26.65;39.95;100003.38;5063194;28;20450;-48
2021/09/28 11:21:15;;;;;;;10.48;7.47;;;;;;;25.83;39.82;99998.63;5056528;28;20052;-54
2021/09/28 11:23:41;;;;;;;9.13;7.60;;;;;;;25.50;40.65;99990.44;5041414;28;20024;-47
2021/09/28 11:26:07;;;;;;;9.48;7.65;;;;;;;26.04;39.49;99997.16;5063160;28;20037;-48